createdAt,value
2023-03-22T00:01:43.133Z,36.00
2023-03-22T00:04:11.472Z,36.10
2023-03-22T00:06:39.360Z,37.90
2023-03-22T00:09:07.087Z,37.80
2023-03-22T00:11:34.821Z,34.00
2023-03-22T00:14:02.588Z,38.10
2023-03-22T00:16:30.558Z,35.90
2023-03-22T00:18:58.412Z,32.40
2023-03-22T00:21:26.202Z,37.30
2023-03-22T00:23:53.940Z,36.90
2023-03-22T00:26:21.811Z,33.80
2023-03-22T00:28:49.823Z,33.10
2023-03-22T00:31:17.857Z,37.30
2023-03-22T00:33:45.723Z,37.60
2023-03-22T00:36:13.853Z,42.10
2023-03-22T00:38:44.105Z,37.00
2023-03-22T00:41:16.129Z,40.00
2023-03-22T00:43:46.800Z,40.00
2023-03-22T00:46:15.507Z,39.10
2023-03-22T00:48:43.589Z,40.90
2023-03-22T00:51:11.930Z,41.00
2023-03-22T00:53:43.096Z,41.40
2023-03-22T00:56:15.900Z,40.00
2023-03-22T00:58:47.157Z,40.40
2023-03-22T01:01:15.345Z,38.60
2023-03-22T01:03:44.069Z,41.00
2023-03-22T01:06:15.500Z,42.80
2023-03-22T01:08:43.304Z,38.10
2023-03-22T01:11:11.225Z,39.40
2023-03-22T01:13:39.486Z,44.10
2023-03-22T01:16:08.413Z,41.40
2023-03-22T01:18:36.780Z,41.00
2023-03-22T01:21:05.199Z,39.50
2023-03-22T01:23:33.476Z,39.40
2023-03-22T01:26:01.611Z,40.00
2023-03-22T01:28:30.384Z,41.70
2023-03-22T01:31:01.869Z,45.20
2023-03-22T01:33:30.585Z,40.20
2023-03-22T01:35:58.797Z,42.90
2023-03-22T01:38:26.925Z,44.70
2023-03-22T01:40:57.881Z,46.30
2023-03-22T01:43:26.109Z,44.40
2023-03-22T01:45:55.329Z,40.70
2023-03-22T01:48:36.201Z,44.20
2023-03-22T01:51:09.846Z,42.60
2023-03-22T01:53:58.244Z,42.60
2023-03-22T01:56:28.814Z,43.80
2023-03-22T01:58:57.307Z,43.60
2023-03-22T02:01:31.977Z,49.30
2023-03-22T02:04:12.365Z,53.10
2023-03-22T02:06:41.080Z,47.10
2023-03-22T02:09:14.680Z,48.70
2023-03-22T02:11:44.453Z,49.60
2023-03-22T02:14:29.464Z,44.80
2023-03-22T02:18:07.168Z,44.60
2023-03-22T02:20:53.058Z,44.10
2023-03-22T02:23:46.797Z,44.70
2023-03-22T02:26:23.730Z,45.90
2023-03-22T02:28:54.531Z,46.40
2023-03-22T02:31:56.907Z,47.90
2023-03-22T02:34:36.468Z,44.80
2023-03-22T02:37:10.668Z,47.70
2023-03-22T02:39:48.009Z,50.50
2023-03-22T02:42:40.216Z,59.50
2023-03-22T02:45:11.442Z,65.20
2023-03-22T02:47:59.524Z,73.20
2023-03-22T02:50:52.390Z,75.40
2023-03-22T02:53:26.253Z,96.40
2023-03-22T02:56:03.967Z,90.50
2023-03-22T02:58:45.888Z,79.40
2023-03-22T03:01:20.090Z,77.20
2023-03-22T03:03:49.946Z,80.50
2023-03-22T03:06:20.469Z,78.30
2023-03-22T03:08:50.986Z,75.00
2023-03-22T03:11:20.114Z,73.70
2023-03-22T03:13:50.383Z,71.10
2023-03-22T03:16:21.255Z,63.20
2023-03-22T03:19:08.041Z,60.30
2023-03-22T03:22:00.212Z,56.50
2023-03-22T03:24:34.875Z,50.10
2023-03-22T03:27:20.192Z,44.60
2023-03-22T03:29:51.505Z,47.80
2023-03-22T03:32:35.367Z,46.80
2023-03-22T03:35:22.717Z,41.80
2023-03-22T03:37:59.034Z,41.60
2023-03-22T03:40:31.197Z,39.50
2023-03-22T03:45:27.890Z,38.50
2023-03-22T03:48:00.884Z,38.90
2023-03-22T03:50:29.228Z,41.70
2023-03-22T03:52:57.982Z,37.60
2023-03-22T03:55:26.729Z,38.80
2023-03-22T03:57:54.552Z,41.80
2023-03-22T04:00:22.561Z,38.90
2023-03-22T04:03:10.232Z,41.60
2023-03-22T04:05:56.879Z,40.80
2023-03-22T04:08:25.325Z,42.10
2023-03-22T04:10:53.581Z,40.10
2023-03-22T04:13:21.697Z,40.80
2023-03-22T04:15:54.285Z,42.90
2023-03-22T04:20:53.439Z,44.70
2023-03-22T04:23:23.218Z,42.60
2023-03-22T04:25:52.127Z,45.00
2023-03-22T04:28:30.024Z,42.20
2023-03-22T04:30:58.017Z,45.20
2023-03-22T04:33:49.923Z,40.30
2023-03-22T04:36:31.131Z,39.90
2023-03-22T04:39:13.461Z,41.30
2023-03-22T04:41:42.032Z,40.70
2023-03-22T04:44:09.885Z,45.20
2023-03-22T04:46:42.746Z,45.80
2023-03-22T04:49:11.201Z,43.20
2023-03-22T04:51:40.397Z,39.90
2023-03-22T04:54:20.387Z,43.70
2023-03-22T04:56:48.454Z,44.20
2023-03-22T04:59:20.491Z,46.70
2023-03-22T05:01:50.565Z,47.60
2023-03-22T05:04:22.409Z,48.20
2023-03-22T05:06:53.600Z,52.80
2023-03-22T05:09:26.236Z,50.20
2023-03-22T05:11:54.503Z,45.00
2023-03-22T05:14:33.601Z,47.20
2023-03-22T05:17:01.785Z,40.20
2023-03-22T05:19:29.895Z,39.90
2023-03-22T05:21:58.533Z,41.70
2023-03-22T05:24:36.022Z,38.20
2023-03-22T05:27:04.200Z,37.10
2023-03-22T05:29:36.998Z,38.20
2023-03-22T05:32:12.058Z,39.70
2023-03-22T05:34:42.867Z,43.10
2023-03-22T05:37:23.633Z,39.90
2023-03-22T05:39:54.688Z,47.50
2023-03-22T05:42:26.563Z,44.70
2023-03-22T05:44:54.576Z,45.10
2023-03-22T05:47:22.643Z,45.50
2023-03-22T05:50:08.874Z,45.60
2023-03-22T05:52:37.119Z,46.90
2023-03-22T05:55:34.259Z,50.30
2023-03-22T05:58:05.103Z,52.70
2023-03-22T06:00:34.073Z,57.80
2023-03-22T06:03:20.668Z,57.90
2023-03-22T06:05:59.121Z,59.20
2023-03-22T06:08:49.911Z,58.60
2023-03-22T06:11:19.355Z,57.80
2023-03-22T06:13:47.566Z,45.30
2023-03-22T06:16:16.493Z,54.90
2023-03-22T06:18:44.655Z,55.30
2023-03-22T06:21:13.380Z,61.60
2023-03-22T06:23:43.596Z,55.30
2023-03-22T06:26:12.024Z,47.30
2023-03-22T06:28:40.898Z,42.10
2023-03-22T06:31:10.791Z,42.10
2023-03-22T06:33:50.313Z,39.90
2023-03-22T06:36:36.864Z,40.10
2023-03-22T06:39:12.133Z,43.70
2023-03-22T06:41:44.321Z,39.20
2023-03-22T06:44:13.058Z,40.40
2023-03-22T06:47:04.976Z,41.60
2023-03-22T06:49:42.845Z,43.40
2023-03-22T06:52:18.144Z,43.80
2023-03-22T06:54:45.985Z,42.30
2023-03-22T06:57:13.917Z,40.50
2023-03-22T06:59:41.737Z,38.10
2023-03-22T07:02:12.358Z,36.50
2023-03-22T07:07:09.768Z,36.50
2023-03-22T07:09:39.356Z,34.00
2023-03-22T07:12:07.297Z,37.30
2023-03-22T07:14:35.579Z,38.60
2023-03-22T07:17:21.735Z,35.00
2023-03-22T07:19:49.773Z,39.10
2023-03-22T07:22:17.885Z,39.20
2023-03-22T07:24:56.251Z,38.40
2023-03-22T07:27:26.337Z,33.40
2023-03-22T07:29:54.597Z,33.50
2023-03-22T07:32:23.248Z,37.20
2023-03-22T07:35:00.803Z,37.50
2023-03-22T07:37:29.793Z,33.80
2023-03-22T07:39:57.610Z,38.00
2023-03-22T07:42:28.474Z,36.10
2023-03-22T07:45:28.974Z,34.10
2023-03-22T07:48:15.895Z,38.10
2023-03-22T07:50:59.313Z,35.30
2023-03-22T07:53:28.072Z,31.60
2023-03-22T07:55:56.159Z,32.90
2023-03-22T07:58:23.974Z,35.20
2023-03-22T08:00:52.548Z,35.10
2023-03-22T08:03:40.591Z,33.60
2023-03-22T08:06:37.038Z,32.10
2023-03-22T08:09:05.081Z,29.30
2023-03-22T08:11:32.892Z,32.10
2023-03-22T08:14:01.170Z,30.90
2023-03-22T08:16:29.466Z,35.50
2023-03-22T08:18:58.532Z,29.60
2023-03-22T08:21:27.696Z,30.90
2023-03-22T08:23:56.584Z,31.20
2023-03-22T08:26:42.867Z,32.00
2023-03-22T08:29:16.740Z,27.90
2023-03-22T08:31:47.657Z,30.50
2023-03-22T08:34:15.761Z,26.90
2023-03-22T08:36:43.656Z,22.00
2023-03-22T08:39:11.806Z,19.30
2023-03-22T08:42:05.554Z,20.00
2023-03-22T08:44:33.601Z,19.70
2023-03-22T08:47:03.138Z,24.60
2023-03-22T08:49:31.596Z,22.50
2023-03-22T08:52:07.538Z,20.10
2023-03-22T08:54:59.414Z,15.50
2023-03-22T08:57:50.320Z,21.70
2023-03-22T14:02:40.121Z,5.00
2023-03-22T14:05:12.096Z,6.70
2023-03-22T14:07:53.826Z,5.90
2023-03-22T14:10:37.061Z,6.70
2023-03-22T14:13:32.567Z,7.90
2023-03-22T14:16:21.847Z,4.80
2023-03-22T14:18:50.965Z,5.50
2023-03-22T14:21:24.569Z,4.40
